sensor_id;sensor_type;location;lat;lon;timestamp;P1;durP1;ratioP1;P2;durP2;ratioP2
45033;SDS011;30771;47.988;-4.186;2023-08-12T06:05:02;63.03;;;8.35;;
45033;SDS011;30771;47.988;-4.186;2023-08-12T06:07:28;49.13;;;8.65;;
45033;SDS011;30771;47.988;-4.186;2023-08-12T06:09:53;60.42;;;7.15;;
45033;SDS011;30771;47.988;-4.186;2023-08-12T06:12:18;54.00;;;8.18;;
45033;SDS011;30771;47.988;-4.186;2023-08-12T06:14:44;60.78;;;8.85;;
45033;SDS011;30771;47.988;-4.186;2023-08-12T06:17:09;67.60;;;8.82;;
45033;SDS011;30771;47.988;-4.186;2023-08-12T06:19:34;60.40;;;8.25;;
45033;SDS011;30771;47.988;-4.186;2023-08-12T06:22:00;61.10;;;8.43;;
45033;SDS011;30771;47.988;-4.186;2023-08-12T06:24:25;56.05;;;8.45;;
45033;SDS011;30771;47.988;-4.186;2023-08-12T06:26:51;57.67;;;7.70;;
45033;SDS011;30771;47.988;-4.186;2023-08-12T06:29:16;63.45;;;8.90;;
45033;SDS011;30771;47.988;-4.186;2023-08-12T06:31:42;52.72;;;7.80;;
45033;SDS011;30771;47.988;-4.186;2023-08-12T06:34:07;51.13;;;8.40;;
45033;SDS011;30771;47.988;-4.186;2023-08-12T06:36:32;56.05;;;7.38;;
45033;SDS011;30771;47.988;-4.186;2023-08-12T06:38:58;55.30;;;6.75;;
45033;SDS011;30771;47.988;-4.186;2023-08-12T06:41:24;52.47;;;7.28;;
45033;SDS011;30771;47.988;-4.186;2023-08-12T06:43:49;56.13;;;7.70;;
45033;SDS011;30771;47.988;-4.186;2023-08-12T06:46:15;58.58;;;8.30;;
45033;SDS011;30771;47.988;-4.186;2023-08-12T06:48:40;52.70;;;7.78;;
45033;SDS011;30771;47.988;-4.186;2023-08-12T06:51:05;62.35;;;8.25;;
45033;SDS011;30771;47.988;-4.186;2023-08-12T06:53:40;52.72;;;7.47;;
45033;SDS011;30771;47.988;-4.186;2023-08-12T06:56:05;51.33;;;7.22;;
45033;SDS011;30771;47.988;-4.186;2023-08-12T06:58:31;49.92;;;7.00;;
45033;SDS011;30771;47.988;-4.186;2023-08-12T07:00:56;44.83;;;7.60;;
45033;SDS011;30771;47.988;-4.186;2023-08-12T07:03:24;53.00;;;8.25;;
45033;SDS011;30771;47.988;-4.186;2023-08-12T07:05:50;41.42;;;6.95;;
45033;SDS011;30771;47.988;-4.186;2023-08-12T07:08:15;47.28;;;6.32;;
45033;SDS011;30771;47.988;-4.186;2023-08-12T07:10:41;42.92;;;6.65;;
45033;SDS011;30771;47.988;-4.186;2023-08-12T07:13:06;48.65;;;7.82;;
45033;SDS011;30771;47.988;-4.186;2023-08-12T07:15:32;38.00;;;6.03;;
45033;SDS011;30771;47.988;-4.186;2023-08-12T07:17:58;54.25;;;6.72;;
45033;SDS011;30771;47.988;-4.186;2023-08-12T07:20:26;48.88;;;7.43;;
45033;SDS011;30771;47.988;-4.186;2023-08-12T07:25:17;44.72;;;6.43;;
45033;SDS011;30771;47.988;-4.186;2023-08-12T07:27:43;44.58;;;6.45;;
45033;SDS011;30771;47.988;-4.186;2023-08-12T07:30:08;63.28;;;7.78;;
45033;SDS011;30771;47.988;-4.186;2023-08-12T07:32:35;47.00;;;7.05;;
45033;SDS011;30771;47.988;-4.186;2023-08-12T07:35:01;50.78;;;6.95;;
45033;SDS011;30771;47.988;-4.186;2023-08-12T07:37:28;48.53;;;6.50;;
45033;SDS011;30771;47.988;-4.186;2023-08-12T07:39:54;45.50;;;7.72;;
45033;SDS011;30771;47.988;-4.186;2023-08-12T07:42:19;44.38;;;6.90;;
45033;SDS011;30771;47.988;-4.186;2023-08-12T07:44:45;51.45;;;7.53;;
45033;SDS011;30771;47.988;-4.186;2023-08-12T07:47:11;48.20;;;6.75;;
45033;SDS011;30771;47.988;-4.186;2023-08-12T07:49:36;48.17;;;6.90;;
45033;SDS011;30771;47.988;-4.186;2023-08-12T07:52:03;39.30;;;6.25;;
45033;SDS011;30771;47.988;-4.186;2023-08-12T07:54:29;51.50;;;6.82;;
45033;SDS011;30771;47.988;-4.186;2023-08-12T07:56:54;41.83;;;6.85;;
45033;SDS011;30771;47.988;-4.186;2023-08-12T07:59:20;43.65;;;6.20;;
45033;SDS011;30771;47.988;-4.186;2023-08-12T08:01:45;38.95;;;6.15;;
45033;SDS011;30771;47.988;-4.186;2023-08-12T08:04:11;41.78;;;6.50;;
45033;SDS011;30771;47.988;-4.186;2023-08-12T08:06:36;33.53;;;5.03;;
45033;SDS011;30771;47.988;-4.186;2023-08-12T08:09:02;44.38;;;6.75;;
45033;SDS011;30771;47.988;-4.186;2023-08-12T08:11:29;39.85;;;5.30;;
45033;SDS011;30771;47.988;-4.186;2023-08-12T08:13:55;35.38;;;5.63;;
45033;SDS011;30771;47.988;-4.186;2023-08-12T08:16:20;38.85;;;6.50;;
45033;SDS011;30771;47.988;-4.186;2023-08-12T08:18:46;36.80;;;6.15;;
45033;SDS011;30771;47.988;-4.186;2023-08-12T08:21:11;45.95;;;6.32;;
45033;SDS011;30771;47.988;-4.186;2023-08-12T08:23:36;34.88;;;5.72;;
45033;SDS011;30771;47.988;-4.186;2023-08-12T08:26:02;41.33;;;5.90;;
45033;SDS011;30771;47.988;-4.186;2023-08-12T08:28:27;28.70;;;6.30;;
45033;SDS011;30771;47.988;-4.186;2023-08-12T08:30:53;46.60;;;6.30;;
45033;SDS011;30771;47.988;-4.186;2023-08-12T08:33:18;44.08;;;6.00;;
45033;SDS011;30771;47.988;-4.186;2023-08-12T08:35:44;33.58;;;6.00;;
45033;SDS011;30771;47.988;-4.186;2023-08-12T08:38:09;33.47;;;5.40;;
45033;SDS011;30771;47.988;-4.186;2023-08-12T08:40:35;36.20;;;6.72;;
45033;SDS011;30771;47.988;-4.186;2023-08-12T08:43:01;44.03;;;6.25;;
45033;SDS011;30771;47.988;-4.186;2023-08-12T08:45:31;34.42;;;5.85;;
45033;SDS011;30771;47.988;-4.186;2023-08-12T08:47:57;40.47;;;6.32;;
45033;SDS011;30771;47.988;-4.186;2023-08-12T08:50:25;31.80;;;5.82;;
45033;SDS011;30771;47.988;-4.186;2023-08-12T08:52:51;35.33;;;6.05;;
45033;SDS011;30771;47.988;-4.186;2023-08-12T08:55:18;32.88;;;5.65;;
45033;SDS011;30771;47.988;-4.186;2023-08-12T08:57:44;45.13;;;7.07;;
45033;SDS011;30771;47.988;-4.186;2023-08-12T09:00:10;30.17;;;6.07;;
45033;SDS011;30771;47.988;-4.186;2023-08-12T09:02:36;31.77;;;5.43;;
45033;SDS011;30771;47.988;-4.186;2023-08-12T09:05:02;36.35;;;5.68;;
45033;SDS011;30771;47.988;-4.186;2023-08-12T09:07:29;34.10;;;6.00;;
45033;SDS011;30771;47.988;-4.186;2023-08-12T09:09:56;34.05;;;5.25;;
45033;SDS011;30771;47.988;-4.186;2023-08-12T09:14:51;32.72;;;5.30;;
45033;SDS011;30771;47.988;-4.186;2023-08-12T09:17:16;32.40;;;5.50;;
45033;SDS011;30771;47.988;-4.186;2023-08-12T09:19:41;33.97;;;6.63;;
45033;SDS011;30771;47.988;-4.186;2023-08-12T09:22:07;40.67;;;7.15;;
45033;SDS011;30771;47.988;-4.186;2023-08-12T09:24:36;37.45;;;6.82;;
45033;SDS011;30771;47.988;-4.186;2023-08-12T09:27:01;36.08;;;6.80;;
45033;SDS011;30771;47.988;-4.186;2023-08-12T09:29:30;28.98;;;5.40;;
45033;SDS011;30771;47.988;-4.186;2023-08-12T09:32:08;29.90;;;4.97;;
45033;SDS011;30771;47.988;-4.186;2023-08-12T09:34:35;36.55;;;5.60;;
45033;SDS011;30771;47.988;-4.186;2023-08-12T09:37:01;31.88;;;5.65;;
45033;SDS011;30771;47.988;-4.186;2023-08-12T09:39:28;32.17;;;5.68;;
45033;SDS011;30771;47.988;-4.186;2023-08-12T09:41:54;31.48;;;5.32;;
45033;SDS011;30771;47.988;-4.186;2023-08-12T09:44:20;37.92;;;6.45;;
45033;SDS011;30771;47.988;-4.186;2023-08-12T09:46:47;38.67;;;6.78;;
45033;SDS011;30771;47.988;-4.186;2023-08-12T09:49:13;39.78;;;5.97;;
45033;SDS011;30771;47.988;-4.186;2023-08-12T09:51:38;40.47;;;6.32;;
45033;SDS011;30771;47.988;-4.186;2023-08-12T09:54:08;34.50;;;5.55;;
45033;SDS011;30771;47.988;-4.186;2023-08-12T09:56:36;32.92;;;5.90;;
45033;SDS011;30771;47.988;-4.186;2023-08-12T09:59:02;29.95;;;5.43;;
45033;SDS011;30771;47.988;-4.186;2023-08-12T10:03:56;33.92;;;5.72;;
45033;SDS011;30771;47.988;-4.186;2023-08-12T10:06:22;39.50;;;6.03;;
45033;SDS011;30771;47.988;-4.186;2023-08-12T10:08:47;30.40;;;5.80;;
45033;SDS011;30771;47.988;-4.186;2023-08-12T10:11:14;37.33;;;6.25;;
45033;SDS011;30771;47.988;-4.186;2023-08-12T10:13:40;26.67;;;5.38;;
45033;SDS011;30771;47.988;-4.186;2023-08-12T10:16:06;35.08;;;5.93;;
45033;SDS011;30771;47.988;-4.186;2023-08-12T10:18:33;30.10;;;4.97;;
45033;SDS011;30771;47.988;-4.186;2023-08-12T10:21:00;32.53;;;6.50;;
45033;SDS011;30771;47.988;-4.186;2023-08-12T10:23:25;30.08;;;5.38;;
45033;SDS011;30771;47.988;-4.186;2023-08-12T10:25:53;42.78;;;7.30;;
45033;SDS011;30771;47.988;-4.186;2023-08-12T10:28:19;38.90;;;5.25;;
45033;SDS011;30771;47.988;-4.186;2023-08-12T10:30:46;39.17;;;7.03;;
45033;SDS011;30771;47.988;-4.186;2023-08-12T10:33:11;35.50;;;5.28;;
45033;SDS011;30771;47.988;-4.186;2023-08-12T10:35:45;34.75;;;5.85;;
45033;SDS011;30771;47.988;-4.186;2023-08-12T10:38:19;41.45;;;6.50;;
45033;SDS011;30771;47.988;-4.186;2023-08-12T10:40:46;30.02;;;4.97;;
45033;SDS011;30771;47.988;-4.186;2023-08-12T10:43:12;38.83;;;5.95;;
45033;SDS011;30771;47.988;-4.186;2023-08-12T10:45:46;41.85;;;6.53;;
45033;SDS011;30771;47.988;-4.186;2023-08-12T10:48:17;37.58;;;5.50;;
45033;SDS011;30771;47.988;-4.186;2023-08-12T10:50:48;33.60;;;4.85;;
45033;SDS011;30771;47.988;-4.186;2023-08-12T10:53:20;37.92;;;6.15;;
45033;SDS011;30771;47.988;-4.186;2023-08-12T10:55:56;34.65;;;5.88;;
45033;SDS011;30771;47.988;-4.186;2023-08-12T10:58:29;32.28;;;7.07;;
45033;SDS011;30771;47.988;-4.186;2023-08-12T11:00:59;42.13;;;6.03;;
45033;SDS011;30771;47.988;-4.186;2023-08-12T11:03:25;30.15;;;5.22;;
45033;SDS011;30771;47.988;-4.186;2023-08-12T11:05:50;39.20;;;6.15;;
45033;SDS011;30771;47.988;-4.186;2023-08-12T11:08:23;34.10;;;5.63;;
45033;SDS011;30771;47.988;-4.186;2023-08-12T11:10:52;41.55;;;5.65;;
45033;SDS011;30771;47.988;-4.186;2023-08-12T11:13:19;37.83;;;5.15;;
45033;SDS011;30771;47.988;-4.186;2023-08-12T11:15:45;35.88;;;5.53;;
45033;SDS011;30771;47.988;-4.186;2023-08-12T11:18:18;32.20;;;5.78;;
45033;SDS011;30771;47.988;-4.186;2023-08-12T11:20:44;24.48;;;4.22;;
45033;SDS011;30771;47.988;-4.186;2023-08-12T11:23:10;28.10;;;5.50;;
45033;SDS011;30771;47.988;-4.186;2023-08-12T11:25:37;31.40;;;4.68;;
45033;SDS011;30771;47.988;-4.186;2023-08-12T11:28:03;24.73;;;4.78;;
45033;SDS011;30771;47.988;-4.186;2023-08-12T11:30:29;35.67;;;4.80;;
45033;SDS011;30771;47.988;-4.186;2023-08-12T11:32:55;26.13;;;4.35;;
45033;SDS011;30771;47.988;-4.186;2023-08-12T11:35:22;28.23;;;4.85;;
45033;SDS011;30771;47.988;-4.186;2023-08-12T11:37:50;28.80;;;4.80;;
45033;SDS011;30771;47.988;-4.186;2023-08-12T11:40:18;36.33;;;6.05;;
45033;SDS011;30771;47.988;-4.186;2023-08-12T11:42:46;28.65;;;4.60;;
45033;SDS011;30771;47.988;-4.186;2023-08-12T11:45:13;25.85;;;5.82;;
45033;SDS011;30771;47.988;-4.186;2023-08-12T11:47:41;32.55;;;4.85;;
45033;SDS011;30771;47.988;-4.186;2023-08-12T11:50:08;31.25;;;5.90;;
45033;SDS011;30771;47.988;-4.186;2023-08-12T11:52:35;29.23;;;5.65;;
45033;SDS011;30771;47.988;-4.186;2023-08-12T11:55:02;35.72;;;5.88;;
45033;SDS011;30771;47.988;-4.186;2023-08-12T11:57:28;32.58;;;5.32;;
45033;SDS011;30771;47.988;-4.186;2023-08-12T12:00:00;29.70;;;4.72;;
45033;SDS011;30771;47.988;-4.186;2023-08-12T12:02:35;28.80;;;4.88;;
45033;SDS011;30771;47.988;-4.186;2023-08-12T12:05:13;27.83;;;4.72;;
45033;SDS011;30771;47.988;-4.186;2023-08-12T12:07:38;25.02;;;4.72;;
45033;SDS011;30771;47.988;-4.186;2023-08-12T12:10:04;24.92;;;5.38;;
45033;SDS011;30771;47.988;-4.186;2023-08-12T12:12:32;28.40;;;5.47;;
45033;SDS011;30771;47.988;-4.186;2023-08-12T12:15:00;31.45;;;5.55;;
45033;SDS011;30771;47.988;-4.186;2023-08-12T12:17:25;27.90;;;4.82;;
45033;SDS011;30771;47.988;-4.186;2023-08-12T12:19:57;19.75;;;4.88;;
45033;SDS011;30771;47.988;-4.186;2023-08-12T12:22:28;33.95;;;5.53;;
45033;SDS011;30771;47.988;-4.186;2023-08-12T12:24:53;32.95;;;5.95;;
45033;SDS011;30771;47.988;-4.186;2023-08-12T12:27:19;28.25;;;5.32;;
45033;SDS011;30771;47.988;-4.186;2023-08-12T12:29:44;37.20;;;5.35;;
45033;SDS011;30771;47.988;-4.186;2023-08-12T12:32:10;23.85;;;4.45;;
45033;SDS011;30771;47.988;-4.186;2023-08-12T12:34:35;22.88;;;4.35;;
45033;SDS011;30771;47.988;-4.186;2023-08-12T12:37:01;28.48;;;4.72;;
45033;SDS011;30771;47.988;-4.186;2023-08-12T12:39:26;30.38;;;5.07;;
45033;SDS011;30771;47.988;-4.186;2023-08-12T12:41:52;27.00;;;4.95;;
45033;SDS011;30771;47.988;-4.186;2023-08-12T12:44:17;24.05;;;4.68;;
45033;SDS011;30771;47.988;-4.186;2023-08-12T12:46:43;26.10;;;4.93;;
45033;SDS011;30771;47.988;-4.186;2023-08-12T12:49:08;32.47;;;5.20;;
45033;SDS011;30771;47.988;-4.186;2023-08-12T12:51:34;24.80;;;4.40;;
45033;SDS011;30771;47.988;-4.186;2023-08-12T12:53:59;21.15;;;4.32;;
45033;SDS011;30771;47.988;-4.186;2023-08-12T12:56:24;18.98;;;3.88;;
45033;SDS011;30771;47.988;-4.186;2023-08-12T12:58:50;19.83;;;4.50;;
45033;SDS011;30771;47.988;-4.186;2023-08-12T13:01:15;23.30;;;3.88;;
45033;SDS011;30771;47.988;-4.186;2023-08-12T13:03:41;25.90;;;4.05;;
45033;SDS011;30771;47.988;-4.186;2023-08-12T13:06:06;24.33;;;3.83;;
45033;SDS011;30771;47.988;-4.186;2023-08-12T13:08:32;22.63;;;4.30;;
45033;SDS011;30771;47.988;-4.186;2023-08-12T13:10:58;20.75;;;4.00;;
45033;SDS011;30771;47.988;-4.186;2023-08-12T13:13:23;17.55;;;3.47;;
45033;SDS011;30771;47.988;-4.186;2023-08-12T13:15:49;28.25;;;4.50;;
45033;SDS011;30771;47.988;-4.186;2023-08-12T13:18:15;20.73;;;4.72;;
45033;SDS011;30771;47.988;-4.186;2023-08-12T13:20:40;26.52;;;5.20;;
45033;SDS011;30771;47.988;-4.186;2023-08-12T13:23:06;17.25;;;3.65;;
45033;SDS011;30771;47.988;-4.186;2023-08-12T13:25:32;28.02;;;4.55;;
45033;SDS011;30771;47.988;-4.186;2023-08-12T13:28:01;19.10;;;4.15;;
45033;SDS011;30771;47.988;-4.186;2023-08-12T13:30:28;23.23;;;4.60;;
45033;SDS011;30771;47.988;-4.186;2023-08-12T13:32:54;24.48;;;4.15;;
45033;SDS011;30771;47.988;-4.186;2023-08-12T13:35:20;21.83;;;3.78;;
45033;SDS011;30771;47.988;-4.186;2023-08-12T13:37:45;21.10;;;3.90;;
45033;SDS011;30771;47.988;-4.186;2023-08-12T13:40:11;20.48;;;4.40;;
45033;SDS011;30771;47.988;-4.186;2023-08-12T13:42:37;22.88;;;4.00;;
45033;SDS011;30771;47.988;-4.186;2023-08-12T13:45:03;20.33;;;4.43;;
45033;SDS011;30771;47.988;-4.186;2023-08-12T13:47:29;16.63;;;3.58;;
45033;SDS011;30771;47.988;-4.186;2023-08-12T13:49:55;24.00;;;6.05;;
45033;SDS011;30771;47.988;-4.186;2023-08-12T13:52:20;19.13;;;3.70;;
45033;SDS011;30771;47.988;-4.186;2023-08-12T13:54:45;24.20;;;4.45;;
45033;SDS011;30771;47.988;-4.186;2023-08-12T13:57:11;19.30;;;4.40;;
45033;SDS011;30771;47.988;-4.186;2023-08-12T13:59:36;19.40;;;3.83;;
45033;SDS011;30771;47.988;-4.186;2023-08-12T14:02:02;19.92;;;3.88;;
45033;SDS011;30771;47.988;-4.186;2023-08-12T14:04:28;22.73;;;4.18;;
45033;SDS011;30771;47.988;-4.186;2023-08-12T14:06:53;28.05;;;4.50;;
45033;SDS011;30771;47.988;-4.186;2023-08-12T14:09:19;16.45;;;3.80;;
45033;SDS011;30771;47.988;-4.186;2023-08-12T14:11:45;13.88;;;3.08;;
45033;SDS011;30771;47.988;-4.186;2023-08-12T14:14:10;17.83;;;3.10;;
45033;SDS011;30771;47.988;-4.186;2023-08-12T14:16:36;18.77;;;2.97;;
45033;SDS011;30771;47.988;-4.186;2023-08-12T14:19:02;20.38;;;2.80;;
45033;SDS011;30771;47.988;-4.186;2023-08-12T14:21:27;22.05;;;3.60;;
45033;SDS011;30771;47.988;-4.186;2023-08-12T14:23:53;17.30;;;3.00;;
45033;SDS011;30771;47.988;-4.186;2023-08-12T14:26:19;18.50;;;2.85;;
45033;SDS011;30771;47.988;-4.186;2023-08-12T14:28:45;29.65;;;4.00;;
45033;SDS011;30771;47.988;-4.186;2023-08-12T14:31:10;34.40;;;3.80;;
45033;SDS011;30771;47.988;-4.186;2023-08-12T14:33:36;22.63;;;3.92;;
45033;SDS011;30771;47.988;-4.186;2023-08-12T14:36:02;20.00;;;3.15;;
45033;SDS011;30771;47.988;-4.186;2023-08-12T14:38:28;18.73;;;3.78;;
45033;SDS011;30771;47.988;-4.186;2023-08-12T14:40:54;16.40;;;3.10;;
45033;SDS011;30771;47.988;-4.186;2023-08-12T14:43:20;32.00;;;4.22;;
45033;SDS011;30771;47.988;-4.186;2023-08-12T14:45:45;25.83;;;4.00;;
45033;SDS011;30771;47.988;-4.186;2023-08-12T14:48:11;22.50;;;3.80;;
45033;SDS011;30771;47.988;-4.186;2023-08-12T14:50:39;17.45;;;3.45;;
45033;SDS011;30771;47.988;-4.186;2023-08-12T14:53:04;24.08;;;4.25;;
45033;SDS011;30771;47.988;-4.186;2023-08-12T14:55:30;20.98;;;4.00;;
45033;SDS011;30771;47.988;-4.186;2023-08-12T14:57:55;26.90;;;3.88;;
45033;SDS011;30771;47.988;-4.186;2023-08-12T15:00:21;27.17;;;4.15;;
45033;SDS011;30771;47.988;-4.186;2023-08-12T15:02:46;27.55;;;4.05;;
45033;SDS011;30771;47.988;-4.186;2023-08-12T15:05:11;20.73;;;3.55;;
45033;SDS011;30771;47.988;-4.186;2023-08-12T15:07:37;28.33;;;4.50;;
45033;SDS011;30771;47.988;-4.186;2023-08-12T15:10:03;22.75;;;4.05;;
45033;SDS011;30771;47.988;-4.186;2023-08-12T15:12:29;22.90;;;4.35;;
45033;SDS011;30771;47.988;-4.186;2023-08-12T15:14:55;19.08;;;3.80;;
45033;SDS011;30771;47.988;-4.186;2023-08-12T15:17:20;19.83;;;4.78;;
45033;SDS011;30771;47.988;-4.186;2023-08-12T15:19:46;25.20;;;4.70;;
45033;SDS011;30771;47.988;-4.186;2023-08-12T15:22:11;23.02;;;4.78;;
45033;SDS011;30771;47.988;-4.186;2023-08-12T15:24:37;23.48;;;4.32;;
45033;SDS011;30771;47.988;-4.186;2023-08-12T15:27:02;22.90;;;4.13;;
45033;SDS011;30771;47.988;-4.186;2023-08-12T15:29:28;18.33;;;3.45;;
45033;SDS011;30771;47.988;-4.186;2023-08-12T15:31:53;18.52;;;3.25;;
45033;SDS011;30771;47.988;-4.186;2023-08-12T15:34:20;24.25;;;4.43;;
45033;SDS011;30771;47.988;-4.186;2023-08-12T15:36:46;23.60;;;3.83;;
45033;SDS011;30771;47.988;-4.186;2023-08-12T15:39:11;21.67;;;3.97;;
45033;SDS011;30771;47.988;-4.186;2023-08-12T15:41:40;29.60;;;4.43;;
45033;SDS011;30771;47.988;-4.186;2023-08-12T15:44:09;28.73;;;4.20;;
45033;SDS011;30771;47.988;-4.186;2023-08-12T15:46:36;25.05;;;3.67;;
45033;SDS011;30771;47.988;-4.186;2023-08-12T15:49:02;20.42;;;4.32;;
45033;SDS011;30771;47.988;-4.186;2023-08-12T15:51:30;30.13;;;5.13;;
45033;SDS011;30771;47.988;-4.186;2023-08-12T15:53:55;19.23;;;3.90;;
45033;SDS011;30771;47.988;-4.186;2023-08-12T15:56:21;23.35;;;3.88;;
45033;SDS011;30771;47.988;-4.186;2023-08-12T15:58:46;22.15;;;4.25;;
45033;SDS011;30771;47.988;-4.186;2023-08-12T16:01:11;20.90;;;3.78;;
45033;SDS011;30771;47.988;-4.186;2023-08-12T16:03:37;30.52;;;5.03;;
45033;SDS011;30771;47.988;-4.186;2023-08-12T16:06:03;25.92;;;5.15;;
45033;SDS011;30771;47.988;-4.186;2023-08-12T16:08:28;30.50;;;4.32;;
45033;SDS011;30771;47.988;-4.186;2023-08-12T16:10:54;28.73;;;4.88;;
45033;SDS011;30771;47.988;-4.186;2023-08-12T16:13:19;23.73;;;5.05;;
45033;SDS011;30771;47.988;-4.186;2023-08-12T16:15:45;30.75;;;4.80;;
45033;SDS011;30771;47.988;-4.186;2023-08-12T16:18:10;25.27;;;5.70;;
45033;SDS011;30771;47.988;-4.186;2023-08-12T16:20:36;25.65;;;4.72;;
45033;SDS011;30771;47.988;-4.186;2023-08-12T16:23:01;30.55;;;5.28;;
45033;SDS011;30771;47.988;-4.186;2023-08-12T16:25:27;28.67;;;4.63;;
45033;SDS011;30771;47.988;-4.186;2023-08-12T16:27:52;33.28;;;4.85;;
45033;SDS011;30771;47.988;-4.186;2023-08-12T16:30:18;34.72;;;5.65;;
45033;SDS011;30771;47.988;-4.186;2023-08-12T16:32:43;26.23;;;4.82;;
45033;SDS011;30771;47.988;-4.186;2023-08-12T16:35:09;33.35;;;5.72;;
45033;SDS011;30771;47.988;-4.186;2023-08-12T16:37:35;38.75;;;6.55;;
45033;SDS011;30771;47.988;-4.186;2023-08-12T16:40:00;30.42;;;5.30;;
45033;SDS011;30771;47.988;-4.186;2023-08-12T16:42:26;33.20;;;5.55;;
45033;SDS011;30771;47.988;-4.186;2023-08-12T16:44:51;37.47;;;5.82;;
45033;SDS011;30771;47.988;-4.186;2023-08-12T16:47:17;39.60;;;5.30;;
45033;SDS011;30771;47.988;-4.186;2023-08-12T16:49:42;32.55;;;5.55;;
45033;SDS011;30771;47.988;-4.186;2023-08-12T16:52:07;31.67;;;5.10;;
45033;SDS011;30771;47.988;-4.186;2023-08-12T16:54:33;40.13;;;6.38;;
45033;SDS011;30771;47.988;-4.186;2023-08-12T16:56:58;32.28;;;5.65;;
45033;SDS011;30771;47.988;-4.186;2023-08-12T16:59:26;39.90;;;5.82;;
45033;SDS011;30771;47.988;-4.186;2023-08-12T17:01:52;34.45;;;5.15;;
45033;SDS011;30771;47.988;-4.186;2023-08-12T17:04:17;36.38;;;6.18;;
45033;SDS011;30771;47.988;-4.186;2023-08-12T17:06:43;41.35;;;6.13;;
45033;SDS011;30771;47.988;-4.186;2023-08-12T17:09:08;42.08;;;5.82;;
45033;SDS011;30771;47.988;-4.186;2023-08-12T17:11:34;34.35;;;5.38;;
45033;SDS011;30771;47.988;-4.186;2023-08-12T17:13:59;37.53;;;6.03;;
45033;SDS011;30771;47.988;-4.186;2023-08-12T17:16:24;30.30;;;5.18;;
45033;SDS011;30771;47.988;-4.186;2023-08-12T17:18:50;30.30;;;6.28;;
45033;SDS011;30771;47.988;-4.186;2023-08-12T17:21:15;32.85;;;5.30;;
45033;SDS011;30771;47.988;-4.186;2023-08-12T17:23:41;38.35;;;5.28;;
45033;SDS011;30771;47.988;-4.186;2023-08-12T17:26:06;37.72;;;5.50;;
45033;SDS011;30771;47.988;-4.186;2023-08-12T17:28:32;30.77;;;5.13;;
45033;SDS011;30771;47.988;-4.186;2023-08-12T17:30:57;32.42;;;5.43;;
45033;SDS011;30771;47.988;-4.186;2023-08-12T17:33:23;34.17;;;5.47;;
45033;SDS011;30771;47.988;-4.186;2023-08-12T17:35:48;34.95;;;5.80;;
45033;SDS011;30771;47.988;-4.186;2023-08-12T17:38:13;32.63;;;4.95;;
45033;SDS011;30771;47.988;-4.186;2023-08-12T17:40:39;36.05;;;5.40;;
45033;SDS011;30771;47.988;-4.186;2023-08-12T17:43:04;30.70;;;5.25;;
45033;SDS011;30771;47.988;-4.186;2023-08-12T17:45:30;30.35;;;5.50;;
45033;SDS011;30771;47.988;-4.186;2023-08-12T17:47:56;39.60;;;5.85;;
45033;SDS011;30771;47.988;-4.186;2023-08-12T17:50:23;42.95;;;5.90;;
45033;SDS011;30771;47.988;-4.186;2023-08-12T17:52:49;40.97;;;5.95;;
45033;SDS011;30771;47.988;-4.186;2023-08-12T17:55:15;32.53;;;5.78;;
45033;SDS011;30771;47.988;-4.186;2023-08-12T17:57:40;35.95;;;6.20;;
45033;SDS011;30771;47.988;-4.186;2023-08-12T18:00:06;35.55;;;6.00;;
45033;SDS011;30771;47.988;-4.186;2023-08-12T18:02:33;39.40;;;5.35;;
45033;SDS011;30771;47.988;-4.186;2023-08-12T18:04:58;32.38;;;4.55;;
45033;SDS011;30771;47.988;-4.186;2023-08-12T18:07:24;36.72;;;5.38;;
45033;SDS011;30771;47.988;-4.186;2023-08-12T18:09:50;32.92;;;5.55;;
45033;SDS011;30771;47.988;-4.186;2023-08-12T18:12:15;33.65;;;4.68;;
45033;SDS011;30771;47.988;-4.186;2023-08-12T18:14:42;33.40;;;5.85;;
45033;SDS011;30771;47.988;-4.186;2023-08-12T18:17:08;24.75;;;5.20;;
45033;SDS011;30771;47.988;-4.186;2023-08-12T18:19:33;45.17;;;5.80;;
45033;SDS011;30771;47.988;-4.186;2023-08-12T18:21:59;29.05;;;5.05;;
45033;SDS011;30771;47.988;-4.186;2023-08-12T18:24:24;36.17;;;6.10;;
45033;SDS011;30771;47.988;-4.186;2023-08-12T18:26:50;25.65;;;4.88;;
45033;SDS011;30771;47.988;-4.186;2023-08-12T18:29:15;26.17;;;4.38;;
45033;SDS011;30771;47.988;-4.186;2023-08-12T18:31:41;29.80;;;5.05;;
45033;SDS011;30771;47.988;-4.186;2023-08-12T18:34:07;35.15;;;5.20;;
45033;SDS011;30771;47.988;-4.186;2023-08-12T18:36:33;23.90;;;4.78;;
45033;SDS011;30771;47.988;-4.186;2023-08-12T18:38:58;33.53;;;4.45;;
45033;SDS011;30771;47.988;-4.186;2023-08-12T18:41:24;29.83;;;4.78;;
45033;SDS011;30771;47.988;-4.186;2023-08-12T18:43:50;22.42;;;4.55;;
45033;SDS011;30771;47.988;-4.186;2023-08-12T18:46:15;35.55;;;4.93;;
45033;SDS011;30771;47.988;-4.186;2023-08-12T18:48:41;25.73;;;3.97;;
45033;SDS011;30771;47.988;-4.186;2023-08-12T18:51:06;37.95;;;5.03;;
45033;SDS011;30771;47.988;-4.186;2023-08-12T18:53:32;23.92;;;4.72;;
45033;SDS011;30771;47.988;-4.186;2023-08-12T18:55:57;27.52;;;4.60;;
45033;SDS011;30771;47.988;-4.186;2023-08-12T18:58:23;27.90;;;4.47;;
45033;SDS011;30771;47.988;-4.186;2023-08-12T19:00:49;30.35;;;4.65;;
45033;SDS011;30771;47.988;-4.186;2023-08-12T19:03:14;30.58;;;4.60;;
45033;SDS011;30771;47.988;-4.186;2023-08-12T19:05:40;32.50;;;4.10;;
45033;SDS011;30771;47.988;-4.186;2023-08-12T19:08:08;35.45;;;4.63;;
45033;SDS011;30771;47.988;-4.186;2023-08-12T19:10:36;26.27;;;4.18;;
45033;SDS011;30771;47.988;-4.186;2023-08-12T19:13:04;24.35;;;4.05;;
45033;SDS011;30771;47.988;-4.186;2023-08-12T19:15:30;24.50;;;4.60;;
45033;SDS011;30771;47.988;-4.186;2023-08-12T19:17:55;21.85;;;4.22;;
45033;SDS011;30771;47.988;-4.186;2023-08-12T19:20:21;34.65;;;5.00;;
45033;SDS011;30771;47.988;-4.186;2023-08-12T19:22:47;30.70;;;5.07;;
45033;SDS011;30771;47.988;-4.186;2023-08-12T19:25:12;33.28;;;4.70;;
45033;SDS011;30771;47.988;-4.186;2023-08-12T19:27:38;29.70;;;4.88;;
45033;SDS011;30771;47.988;-4.186;2023-08-12T19:30:03;34.40;;;4.82;;
45033;SDS011;30771;47.988;-4.186;2023-08-12T19:32:29;34.78;;;4.90;;
45033;SDS011;30771;47.988;-4.186;2023-08-12T19:34:54;33.95;;;5.35;;
45033;SDS011;30771;47.988;-4.186;2023-08-12T19:37:20;32.90;;;4.95;;
45033;SDS011;30771;47.988;-4.186;2023-08-12T19:39:45;42.97;;;5.47;;
45033;SDS011;30771;47.988;-4.186;2023-08-12T19:42:11;32.00;;;4.82;;
45033;SDS011;30771;47.988;-4.186;2023-08-12T19:44:37;31.83;;;5.22;;
45033;SDS011;30771;47.988;-4.186;2023-08-12T19:47:03;33.80;;;5.25;;
45033;SDS011;30771;47.988;-4.186;2023-08-12T19:49:29;34.67;;;4.65;;
45033;SDS011;30771;47.988;-4.186;2023-08-12T19:51:54;36.03;;;4.35;;
45033;SDS011;30771;47.988;-4.186;2023-08-12T19:54:19;38.38;;;5.15;;
45033;SDS011;30771;47.988;-4.186;2023-08-12T19:56:45;36.75;;;4.63;;
45033;SDS011;30771;47.988;-4.186;2023-08-12T19:59:11;33.20;;;4.88;;
45033;SDS011;30771;47.988;-4.186;2023-08-12T20:01:36;31.00;;;4.60;;
45033;SDS011;30771;47.988;-4.186;2023-08-12T20:04:01;29.27;;;5.05;;
45033;SDS011;30771;47.988;-4.186;2023-08-12T20:06:27;33.30;;;4.63;;
45033;SDS011;30771;47.988;-4.186;2023-08-12T20:08:53;28.83;;;4.95;;
45033;SDS011;30771;47.988;-4.186;2023-08-12T20:11:18;24.77;;;4.28;;
45033;SDS011;30771;47.988;-4.186;2023-08-12T20:13:44;27.65;;;4.43;;
45033;SDS011;30771;47.988;-4.186;2023-08-12T20:16:09;33.47;;;4.97;;
45033;SDS011;30771;47.988;-4.186;2023-08-12T20:18:35;37.15;;;4.63;;
45033;SDS011;30771;47.988;-4.186;2023-08-12T20:21:00;27.88;;;5.22;;
45033;SDS011;30771;47.988;-4.186;2023-08-12T20:23:26;30.95;;;4.32;;
45033;SDS011;30771;47.988;-4.186;2023-08-12T20:25:51;25.65;;;4.03;;